createdAt,value
2023-03-16T00:00:35.477Z,22.40
2023-03-16T00:03:03.847Z,24.20
2023-03-16T00:05:34.902Z,20.20
2023-03-16T00:08:03.825Z,20.60
2023-03-16T00:10:32.185Z,23.00
2023-03-16T00:13:23.955Z,19.80
2023-03-16T00:15:52.043Z,27.20
2023-03-16T00:18:20.574Z,21.90
2023-03-16T00:20:53.222Z,19.10
2023-03-16T00:23:27.061Z,25.70
2023-03-16T00:25:59.595Z,21.30
2023-03-16T00:28:28.137Z,20.60
2023-03-16T00:30:59.499Z,23.30
2023-03-16T00:33:27.506Z,21.70
2023-03-16T00:36:04.083Z,21.60
2023-03-16T00:38:45.181Z,22.90
2023-03-16T00:41:14.589Z,22.20
2023-03-16T00:43:44.627Z,19.50
2023-03-16T00:46:14.380Z,21.90
2023-03-16T00:48:46.132Z,23.00
2023-03-16T00:51:16.968Z,22.70
2023-03-16T00:53:46.445Z,21.60
2023-03-16T00:56:14.775Z,21.70
2023-03-16T00:58:43.947Z,21.40
2023-03-16T01:01:17.278Z,20.70
2023-03-16T01:03:47.429Z,24.50
2023-03-16T01:06:17.175Z,21.70
2023-03-16T01:08:45.353Z,23.80
2023-03-16T01:11:16.573Z,20.10
2023-03-16T01:13:47.414Z,21.60
2023-03-16T01:16:16.568Z,22.80
2023-03-16T01:18:44.565Z,20.40
2023-03-16T01:21:13.962Z,22.50
2023-03-16T01:23:44.008Z,20.00
2023-03-16T01:26:15.284Z,24.40
2023-03-16T01:28:44.501Z,19.60
2023-03-16T01:31:16.233Z,22.70
2023-03-16T01:33:44.923Z,24.30
2023-03-16T01:36:17.545Z,21.20
2023-03-16T01:38:51.499Z,24.90
2023-03-16T01:41:20.017Z,19.60
2023-03-16T01:43:48.252Z,20.70
2023-03-16T01:46:26.161Z,22.40
2023-03-16T01:49:12.329Z,19.90
2023-03-16T01:51:53.563Z,22.30
2023-03-16T01:54:35.820Z,20.90
2023-03-16T01:57:12.919Z,21.70
2023-03-16T01:59:51.504Z,24.40
2023-03-16T02:05:12.640Z,25.20
2023-03-16T02:07:52.292Z,25.70
2023-03-16T02:10:20.544Z,33.50
2023-03-16T02:12:55.642Z,33.70
2023-03-16T02:15:24.449Z,32.70
2023-03-16T02:17:53.424Z,32.20
2023-03-16T02:20:53.189Z,30.70
2023-03-16T02:23:22.120Z,29.70
2023-03-16T02:26:05.973Z,32.00
2023-03-16T02:28:48.386Z,29.50
2023-03-16T02:31:19.192Z,29.50
2023-03-16T02:33:47.905Z,31.70
2023-03-16T02:36:15.893Z,32.70
2023-03-16T02:38:44.459Z,35.20
2023-03-16T02:41:14.734Z,36.00
2023-03-16T02:44:01.292Z,29.00
2023-03-16T02:46:35.891Z,33.60
2023-03-16T02:49:25.926Z,36.80
2023-03-16T02:51:55.068Z,33.80
2023-03-16T02:54:23.594Z,42.30
2023-03-16T02:56:53.161Z,45.00
2023-03-16T02:59:21.773Z,36.20
2023-03-16T03:01:49.835Z,32.90
2023-03-16T03:04:18.275Z,33.20
2023-03-16T03:06:46.191Z,32.70
2023-03-16T03:09:14.914Z,37.90
2023-03-16T03:11:43.384Z,41.10
2023-03-16T03:14:16.910Z,38.00
2023-03-16T03:16:46.959Z,33.20
2023-03-16T03:19:15.988Z,41.90
2023-03-16T03:21:45.631Z,46.90
2023-03-16T03:24:14.177Z,49.00
2023-03-16T03:26:42.159Z,46.40
2023-03-16T03:29:14.421Z,49.30
2023-03-16T03:31:42.390Z,37.40
2023-03-16T03:34:15.743Z,45.40
2023-03-16T03:36:43.995Z,46.90
2023-03-16T03:39:12.053Z,50.60
2023-03-16T03:41:40.310Z,41.50
2023-03-16T03:44:09.592Z,54.60
2023-03-16T03:46:44.320Z,48.60
2023-03-16T03:49:12.643Z,43.40
2023-03-16T03:51:41.414Z,43.40
2023-03-16T03:54:14.114Z,47.60
2023-03-16T03:56:58.386Z,45.60
2023-03-16T03:59:26.455Z,47.50
2023-03-16T04:02:00.678Z,45.90
2023-03-16T04:04:44.199Z,37.30
2023-03-16T04:07:13.392Z,43.20
2023-03-16T04:09:42.178Z,42.60
2023-03-16T04:12:15.548Z,41.10
2023-03-16T04:14:44.246Z,46.80
2023-03-16T04:17:18.841Z,51.20
2023-03-16T04:19:47.857Z,42.30
2023-03-16T04:22:17.263Z,41.90
2023-03-16T04:24:48.203Z,34.30
2023-03-16T04:27:16.686Z,40.20
2023-03-16T04:29:46.701Z,41.20
2023-03-16T04:32:15.392Z,47.80
2023-03-16T04:34:44.382Z,36.40
2023-03-16T04:37:13.860Z,44.50
2023-03-16T04:39:44.743Z,38.00
2023-03-16T04:42:12.907Z,39.10
2023-03-16T04:44:44.586Z,51.60
2023-03-16T04:47:15.032Z,49.70
2023-03-16T04:49:43.570Z,50.80
2023-03-16T04:52:11.770Z,43.90
2023-03-16T04:54:40.981Z,47.50
2023-03-16T04:59:07.882Z,38.70
2023-03-16T05:02:03.939Z,41.70
2023-03-16T05:04:30.911Z,35.50
2023-03-16T05:06:57.653Z,34.10
2023-03-16T05:09:27.789Z,40.20
2023-03-16T05:11:54.654Z,28.80
2023-03-16T05:14:24.589Z,35.60
2023-03-16T05:17:09.760Z,34.60
2023-03-16T05:19:36.753Z,33.40
2023-03-16T05:22:05.946Z,37.80
2023-03-16T05:24:33.084Z,31.90
2023-03-16T05:27:02.802Z,40.60
2023-03-16T05:29:33.772Z,45.80
2023-03-16T05:32:00.514Z,42.90
2023-03-16T05:34:31.727Z,39.20
2023-03-16T05:36:58.509Z,33.00
2023-03-16T05:39:27.843Z,45.40
2023-03-16T05:41:54.469Z,33.50
2023-03-16T05:44:44.302Z,49.20
2023-03-16T05:47:19.505Z,37.90
2023-03-16T05:49:49.746Z,46.40
2023-03-16T05:52:24.907Z,46.70
2023-03-16T05:54:51.631Z,48.30
2023-03-16T05:57:19.990Z,32.60
2023-03-16T05:59:48.178Z,33.30
2023-03-16T06:02:14.973Z,37.90
2023-03-16T06:04:41.533Z,31.10
2023-03-16T06:07:10.123Z,36.40
2023-03-16T06:09:38.550Z,35.30
2023-03-16T06:12:10.251Z,31.30
2023-03-16T06:14:38.051Z,36.10
2023-03-16T06:17:05.098Z,47.50
2023-03-16T06:19:32.679Z,36.60
2023-03-16T06:22:00.294Z,39.90
2023-03-16T06:24:35.325Z,35.80
2023-03-16T06:27:01.996Z,35.30
2023-03-16T06:29:33.304Z,47.20
2023-03-16T06:32:01.601Z,34.30
2023-03-16T06:34:29.072Z,38.20
2023-03-16T06:36:59.931Z,38.00
2023-03-16T06:39:27.523Z,39.70
2023-03-16T06:41:54.430Z,40.80
2023-03-16T06:44:22.181Z,39.40
2023-03-16T06:47:03.527Z,39.70
2023-03-16T06:49:30.625Z,43.10
2023-03-16T06:51:58.106Z,44.00
2023-03-16T06:54:25.338Z,36.60
2023-03-16T06:56:52.574Z,34.20
2023-03-16T06:59:19.246Z,40.30
2023-03-16T07:01:46.071Z,41.10
2023-03-16T07:04:12.865Z,30.50
2023-03-16T07:06:40.763Z,40.10
2023-03-16T07:09:09.413Z,40.90
2023-03-16T07:11:36.339Z,36.30
2023-03-16T07:14:02.921Z,44.80
2023-03-16T07:16:31.514Z,38.20
2023-03-16T07:19:01.143Z,37.90
2023-03-16T07:21:27.629Z,43.40
2023-03-16T07:23:55.181Z,40.40
2023-03-16T07:26:24.572Z,45.20
2023-03-16T07:28:58.200Z,37.90
2023-03-16T07:31:25.042Z,44.50
2023-03-16T07:33:52.098Z,36.60
2023-03-16T07:36:26.069Z,50.30
2023-03-16T07:38:55.581Z,38.50
2023-03-16T07:41:22.621Z,40.20
2023-03-16T07:43:50.168Z,40.20
2023-03-16T07:46:16.892Z,46.30
2023-03-16T07:48:44.199Z,36.00
2023-03-16T07:51:12.109Z,34.80
2023-03-16T07:53:41.135Z,39.40
2023-03-16T07:56:27.236Z,34.80
2023-03-16T07:58:57.990Z,32.40
2023-03-16T08:01:24.614Z,33.60
2023-03-16T08:03:51.233Z,41.80
2023-03-16T08:06:17.974Z,37.00
2023-03-16T08:08:45.552Z,41.30
2023-03-16T08:11:23.172Z,42.90
2023-03-16T08:13:55.834Z,46.70
2023-03-16T08:16:23.581Z,38.10
2023-03-16T08:18:51.468Z,43.10
2023-03-16T08:21:19.548Z,39.50
2023-03-16T08:23:49.820Z,41.40
2023-03-16T08:26:23.059Z,42.00
2023-03-16T08:28:52.780Z,38.20
2023-03-16T08:31:19.839Z,40.70
2023-03-16T08:36:24.727Z,37.00
2023-03-16T08:39:06.543Z,37.80
2023-03-16T08:41:37.241Z,34.80
2023-03-16T08:44:07.194Z,36.10
2023-03-16T08:46:34.886Z,35.90
2023-03-16T08:49:02.268Z,37.30
2023-03-16T08:51:29.005Z,36.00
2023-03-16T08:53:56.116Z,34.60
2023-03-16T08:56:22.719Z,40.40
2023-03-16T08:58:51.570Z,48.40
2023-03-16T09:01:19.136Z,42.40
2023-03-16T09:03:52.225Z,38.50
2023-03-16T09:06:19.638Z,37.00
2023-03-16T09:08:47.090Z,39.70
2023-03-16T09:11:16.661Z,43.40
2023-03-16T09:13:44.190Z,36.60
2023-03-16T09:16:11.562Z,37.20
2023-03-16T09:18:39.982Z,34.80
2023-03-16T09:21:08.112Z,38.10
2023-03-16T09:23:36.861Z,35.00
2023-03-16T09:26:04.971Z,35.20
2023-03-16T09:28:32.178Z,36.50
2023-03-16T09:31:01.002Z,38.90
2023-03-16T09:33:29.587Z,33.80
2023-03-16T09:36:03.706Z,37.60
2023-03-16T09:38:31.705Z,31.90
2023-03-16T09:41:10.183Z,36.40
2023-03-16T09:44:20.145Z,38.90
2023-03-16T09:46:48.100Z,31.80
2023-03-16T09:49:17.189Z,37.20
2023-03-16T09:51:55.840Z,33.50
2023-03-16T09:54:38.444Z,31.10
2023-03-16T09:57:28.359Z,35.90
2023-03-16T10:00:15.338Z,31.60
2023-03-16T10:02:58.462Z,29.90
2023-03-16T10:05:28.222Z,28.80
2023-03-16T10:08:21.572Z,34.40
2023-03-16T10:11:03.204Z,36.00
2023-03-16T10:13:42.550Z,32.40
2023-03-16T10:16:21.550Z,32.20
2023-03-16T10:19:27.890Z,34.50
2023-03-16T10:21:56.308Z,29.70
2023-03-16T10:24:43.126Z,31.00
2023-03-16T10:27:21.155Z,37.00
2023-03-16T10:29:49.536Z,26.00
2023-03-16T10:32:21.805Z,27.40
2023-03-16T10:35:32.506Z,29.30
2023-03-16T10:38:03.310Z,25.50
2023-03-16T10:40:33.310Z,28.50
2023-03-16T10:43:11.891Z,29.80
2023-03-16T10:45:42.648Z,30.10
2023-03-16T10:48:15.997Z,33.50
2023-03-16T10:50:44.776Z,26.10
2023-03-16T10:53:27.095Z,26.50
2023-03-16T10:56:00.256Z,27.90
2023-03-16T10:58:32.242Z,30.60
2023-03-16T11:01:01.702Z,29.70
2023-03-16T11:03:32.480Z,29.90
2023-03-16T11:06:05.559Z,30.30
2023-03-16T11:08:37.444Z,29.50
2023-03-16T11:11:28.080Z,28.10
2023-03-16T11:14:00.584Z,34.60
2023-03-16T11:16:37.173Z,28.60
2023-03-16T11:19:18.987Z,27.60
2023-03-16T11:21:55.163Z,42.40
2023-03-16T11:24:33.369Z,42.10
2023-03-16T11:27:03.352Z,29.30
2023-03-16T11:29:48.837Z,39.90
2023-03-16T11:32:28.020Z,35.30
2023-03-16T11:34:56.099Z,35.40
2023-03-16T11:37:30.860Z,33.10
2023-03-16T11:40:26.221Z,37.10
2023-03-16T11:43:06.466Z,32.90
2023-03-16T11:45:45.763Z,37.20
2023-03-16T11:48:29.365Z,36.90
2023-03-16T11:51:12.109Z,29.90
2023-03-16T11:53:48.826Z,30.40
2023-03-16T11:56:29.118Z,33.40
2023-03-16T11:59:34.861Z,35.60
2023-03-16T12:02:29.226Z,34.00
2023-03-16T12:05:33.248Z,46.70
2023-03-16T12:08:24.809Z,38.50
2023-03-16T12:11:04.422Z,31.30
2023-03-16T12:13:55.409Z,45.80
2023-03-16T12:16:33.203Z,31.60
2023-03-16T12:19:16.682Z,31.90
2023-03-16T12:24:16.574Z,51.80
2023-03-16T12:26:44.955Z,39.70
2023-03-16T12:29:32.295Z,30.70
2023-03-16T12:32:03.745Z,29.90
2023-03-16T12:34:36.959Z,30.20
2023-03-16T12:37:44.703Z,32.50
2023-03-16T12:40:32.877Z,32.00
2023-03-16T12:43:11.931Z,36.90
2023-03-16T12:45:47.080Z,30.80
2023-03-16T12:48:25.106Z,34.70
2023-03-16T12:50:56.084Z,32.40
2023-03-16T12:53:47.791Z,42.00
2023-03-16T12:56:20.399Z,41.30
2023-03-16T12:58:49.427Z,38.60
2023-03-16T13:01:19.939Z,40.50
2023-03-16T13:03:59.610Z,37.30
2023-03-16T13:06:35.104Z,36.10
2023-03-16T13:09:04.748Z,27.40
2023-03-16T13:11:43.847Z,34.50
2023-03-16T13:14:44.752Z,36.00
2023-03-16T13:17:18.440Z,40.60
2023-03-16T13:20:00.326Z,31.70
2023-03-16T13:22:30.528Z,26.80
2023-03-16T13:25:18.252Z,27.90
2023-03-16T13:27:48.117Z,31.70
2023-03-16T13:30:22.425Z,35.40
2023-03-16T13:33:01.254Z,32.10
2023-03-16T13:35:29.373Z,31.50
2023-03-16T13:38:08.248Z,34.10
2023-03-16T13:40:38.947Z,31.90
2023-03-16T13:43:17.625Z,35.90
2023-03-16T13:45:46.811Z,34.40
2023-03-16T13:48:16.283Z,27.70
2023-03-16T13:50:46.072Z,26.80
2023-03-16T13:53:29.022Z,31.70
2023-03-16T13:55:59.193Z,36.30
2023-03-16T13:58:33.655Z,23.50
2023-03-16T14:01:05.109Z,16.70
2023-03-16T14:03:55.100Z,24.80
2023-03-16T14:06:26.510Z,18.90
2023-03-16T14:08:58.702Z,21.50
2023-03-16T14:11:28.363Z,16.70
2023-03-16T14:14:00.561Z,25.30
2023-03-16T14:16:29.801Z,16.40
2023-03-16T14:19:01.337Z,25.10
2023-03-16T14:21:34.254Z,20.80
2023-03-16T14:24:06.974Z,20.70
2023-03-16T14:26:42.556Z,27.60
2023-03-16T14:29:30.599Z,30.30
2023-03-16T14:31:59.903Z,21.50
2023-03-16T14:34:41.097Z,22.80
2023-03-16T14:37:11.948Z,19.80
2023-03-16T14:39:41.744Z,27.40
2023-03-16T14:42:31.912Z,19.90
2023-03-16T14:45:07.691Z,17.50
2023-03-16T14:47:41.990Z,20.70
2023-03-16T14:50:22.363Z,16.20
2023-03-16T14:52:54.448Z,17.90
2023-03-16T14:55:23.934Z,22.80
2023-03-16T14:57:57.025Z,25.80
2023-03-16T15:00:26.438Z,18.90
2023-03-16T15:03:06.617Z,22.20
2023-03-16T15:05:40.099Z,22.50
2023-03-16T15:08:14.766Z,20.30
2023-03-16T15:10:44.355Z,25.00
2023-03-16T15:13:24.686Z,20.70
2023-03-16T15:15:55.632Z,20.50
2023-03-16T15:18:25.646Z,19.30
2023-03-16T15:20:54.311Z,17.70
2023-03-16T15:23:22.340Z,11.90
2023-03-16T15:25:58.452Z,17.10
2023-03-16T15:28:27.672Z,16.80
2023-03-16T15:30:58.509Z,20.10
2023-03-16T15:33:27.714Z,21.50
2023-03-16T15:35:58.692Z,19.40
2023-03-16T15:38:34.753Z,19.00
2023-03-16T15:41:02.955Z,19.50
2023-03-16T15:43:38.304Z,14.00
2023-03-16T15:46:06.510Z,18.30
2023-03-16T15:48:34.888Z,19.00
2023-03-16T15:51:08.636Z,20.90
2023-03-16T15:53:50.256Z,20.20
2023-03-16T15:56:22.148Z,25.30
2023-03-16T15:58:52.960Z,18.40
2023-03-16T16:01:31.317Z,22.90
2023-03-16T16:04:00.551Z,19.70
2023-03-16T16:06:30.459Z,25.60
2023-03-16T16:08:58.495Z,22.00
2023-03-16T16:11:27.583Z,18.30
2023-03-16T16:13:57.872Z,20.50
2023-03-16T16:16:29.909Z,21.20
2023-03-16T16:18:58.214Z,19.60
2023-03-16T16:21:33.820Z,18.10
2023-03-16T16:24:03.150Z,19.70
2023-03-16T16:26:54.820Z,18.60
2023-03-16T16:29:25.808Z,20.70
2023-03-16T16:31:54.513Z,16.50
2023-03-16T16:34:25.731Z,21.80
2023-03-16T16:36:55.185Z,20.10
2023-03-16T16:39:23.753Z,20.90
2023-03-16T16:41:57.181Z,23.60
2023-03-16T16:44:27.665Z,20.60
2023-03-16T16:46:59.838Z,12.80
2023-03-16T16:49:30.777Z,19.10
2023-03-16T16:51:59.005Z,21.50
2023-03-16T16:54:31.212Z,20.20
2023-03-16T16:57:00.017Z,19.60
2023-03-16T16:59:31.506Z,18.40
2023-03-16T17:02:01.041Z,19.90
2023-03-16T17:04:32.046Z,23.40
2023-03-16T17:07:02.871Z,20.30
2023-03-16T17:09:35.098Z,18.80
2023-03-16T17:12:03.166Z,18.70
2023-03-16T17:16:32.270Z,19.80
2023-03-16T17:19:01.654Z,19.60
2023-03-16T17:21:31.032Z,18.60
2023-03-16T17:24:00.407Z,16.20
2023-03-16T17:26:30.576Z,15.50
2023-03-16T17:29:07.582Z,16.80
2023-03-16T17:31:37.368Z,17.20
2023-03-16T17:34:29.578Z,16.40
2023-03-16T17:36:58.682Z,16.20
2023-03-16T17:39:32.427Z,17.10
2023-03-16T17:42:04.962Z,9.40
2023-03-16T17:44:34.683Z,13.60
2023-03-16T17:47:02.850Z,14.00
2023-03-16T17:49:32.873Z,14.60
2023-03-16T17:52:01.336Z,17.40
2023-03-16T17:54:29.846Z,16.30
2023-03-16T17:56:58.026Z,8.20
2023-03-16T17:59:26.210Z,16.00
2023-03-16T18:01:54.534Z,14.30
2023-03-16T18:04:24.756Z,12.10
2023-03-16T18:06:53.498Z,12.90
2023-03-16T18:09:22.383Z,12.10
2023-03-16T18:11:51.363Z,12.50
2023-03-16T18:14:37.385Z,13.80
2023-03-16T18:17:25.724Z,11.70
2023-03-16T18:19:57.486Z,15.30
2023-03-16T18:22:25.876Z,12.00
2023-03-16T18:24:54.045Z,11.60
2023-03-16T18:27:22.512Z,13.70
2023-03-16T18:29:50.351Z,14.90
2023-03-16T18:32:24.968Z,14.90
2023-03-16T18:34:53.092Z,13.40
2023-03-16T18:37:25.976Z,14.10
2023-03-16T18:39:55.061Z,17.20
2023-03-16T18:42:24.596Z,13.70
2023-03-16T18:44:55.805Z,14.40
2023-03-16T18:47:23.792Z,17.20
2023-03-16T18:49:54.192Z,14.20
2023-03-16T18:52:24.052Z,10.60
2023-03-16T18:54:53.048Z,13.90
2023-03-16T18:57:28.203Z,12.50
2023-03-16T18:59:56.507Z,12.30
2023-03-16T19:02:39.257Z,11.50
2023-03-16T19:05:12.669Z,15.70
2023-03-16T19:07:42.680Z,11.00
2023-03-16T19:10:32.419Z,10.90
2023-03-16T19:13:00.630Z,14.50
2023-03-16T19:15:34.034Z,12.60
2023-03-16T19:18:05.607Z,15.30
2023-03-16T19:20:33.740Z,12.80
2023-03-16T19:23:08.863Z,12.00
2023-03-16T19:25:38.373Z,10.60
2023-03-16T19:28:07.769Z,9.70
2023-03-16T19:30:35.739Z,12.50
2023-03-16T19:33:04.035Z,10.60
2023-03-16T19:35:50.814Z,15.50
2023-03-16T19:38:22.260Z,11.00
2023-03-16T19:40:53.963Z,9.20
2023-03-16T19:43:24.894Z,12.60
2023-03-16T19:45:52.932Z,9.90
2023-03-16T19:48:31.749Z,10.90
2023-03-16T19:50:59.820Z,18.00
2023-03-16T19:53:29.444Z,12.60
2023-03-16T19:55:57.813Z,9.90
2023-03-16T19:58:38.570Z,8.70
2023-03-16T20:01:19.192Z,9.10
2023-03-16T20:03:48.520Z,8.30
2023-03-16T20:06:21.590Z,6.90
2023-03-16T20:08:50.459Z,10.10
2023-03-16T20:11:25.150Z,6.40
2023-03-16T20:13:53.098Z,6.70
2023-03-16T20:16:27.315Z,6.80
2023-03-16T20:18:57.093Z,6.50
2023-03-16T20:21:25.863Z,6.00
2023-03-16T20:23:54.080Z,9.30
2023-03-16T20:26:24.496Z,6.00
2023-03-16T20:28:52.882Z,6.80
2023-03-16T20:31:22.831Z,4.90
2023-03-16T20:33:52.635Z,5.60
2023-03-16T20:36:21.464Z,6.20
2023-03-16T20:38:49.545Z,6.50
2023-03-16T20:41:31.074Z,4.30
2023-03-16T20:43:59.919Z,4.10
2023-03-16T20:46:30.973Z,5.70
2023-03-16T20:49:00.812Z,4.90
2023-03-16T20:51:30.498Z,3.30
2023-03-16T20:53:58.562Z,4.30
2023-03-16T20:56:26.877Z,7.30
2023-03-16T20:58:57.080Z,4.60
2023-03-16T21:01:26.589Z,5.20
2023-03-16T21:03:56.892Z,5.30
2023-03-16T21:06:30.087Z,3.00
2023-03-16T21:08:59.908Z,4.40
2023-03-16T21:11:32.490Z,4.40
2023-03-16T21:14:00.869Z,6.50
2023-03-16T21:16:29.120Z,4.20
2023-03-16T21:18:59.003Z,3.10
2023-03-16T21:21:26.971Z,4.70
2023-03-16T21:23:56.547Z,4.00
2023-03-16T21:26:25.450Z,5.00
2023-03-16T21:28:57.985Z,6.00
2023-03-16T21:31:26.479Z,4.10
2023-03-16T21:33:54.642Z,6.50
2023-03-16T21:36:23.504Z,4.50
2023-03-16T21:38:51.858Z,5.00
2023-03-16T21:41:20.256Z,4.90
2023-03-16T21:43:54.577Z,4.20
2023-03-16T21:46:23.692Z,5.20
2023-03-16T21:48:55.230Z,3.50
2023-03-16T21:51:28.532Z,3.60
2023-03-16T21:53:56.807Z,3.60
2023-03-16T21:56:26.489Z,4.50
2023-03-16T21:58:54.756Z,3.80
2023-03-16T22:01:28.954Z,2.40
2023-03-16T22:03:58.955Z,3.60
2023-03-16T22:06:28.095Z,3.10
2023-03-16T22:08:57.768Z,2.80
2023-03-16T22:11:28.370Z,4.20
2023-03-16T22:13:57.405Z,4.00
2023-03-16T22:16:26.750Z,3.40
2023-03-16T22:18:58.130Z,4.40
2023-03-16T22:21:43.672Z,5.00
2023-03-16T22:24:17.172Z,5.50
2023-03-16T22:26:46.482Z,2.50
2023-03-16T22:29:24.035Z,4.20
2023-03-16T22:32:01.372Z,3.80
2023-03-16T22:34:32.279Z,5.60
2023-03-16T22:37:00.476Z,3.10
2023-03-16T22:39:31.900Z,4.80
2023-03-16T22:42:04.074Z,4.30
2023-03-16T22:44:34.209Z,5.00
2023-03-16T22:47:02.551Z,4.10
2023-03-16T22:49:30.871Z,3.30
2023-03-16T22:51:59.150Z,3.70
2023-03-16T22:54:28.382Z,5.30
2023-03-16T22:56:56.627Z,5.10
2023-03-16T22:59:26.330Z,4.80
2023-03-16T23:01:54.741Z,4.20
2023-03-16T23:04:26.031Z,5.20
2023-03-16T23:06:54.336Z,4.20
2023-03-16T23:09:22.936Z,3.90
2023-03-16T23:11:54.451Z,2.00
2023-03-16T23:14:25.838Z,4.80
2023-03-16T23:16:54.338Z,3.40
2023-03-16T23:19:32.056Z,4.60
2023-03-16T23:22:05.161Z,5.00
2023-03-16T23:24:33.797Z,4.90
2023-03-16T23:27:02.378Z,2.10
2023-03-16T23:29:31.053Z,3.20
2023-03-16T23:32:04.517Z,3.20
2023-03-16T23:34:33.034Z,4.60
2023-03-16T23:37:01.429Z,3.30
2023-03-16T23:39:29.575Z,3.40
2023-03-16T23:41:57.755Z,3.90
2023-03-16T23:44:26.856Z,4.10
2023-03-16T23:46:54.796Z,3.20
2023-03-16T23:49:26.408Z,4.00
2023-03-16T23:51:56.270Z,2.90
2023-03-16T23:54:26.427Z,1.70
2023-03-16T23:56:54.506Z,3.70
2023-03-16T23:59:23.708Z,2.60
